sensor_id;sensor_type;location;lat;lon;timestamp;P1;durP1;ratioP1;P2;durP2;ratioP2
39486;SDS011;25173;50.430;18.926;2023-10-09T00:02:14;37.83;;;21.85;;
39486;SDS011;25173;50.430;18.926;2023-10-09T00:05:14;35.38;;;18.20;;
39486;SDS011;25173;50.430;18.926;2023-10-09T00:08:28;32.85;;;19.08;;
39486;SDS011;25173;50.430;18.926;2023-10-09T00:11:31;47.70;;;25.77;;
39486;SDS011;25173;50.430;18.926;2023-10-09T00:14:38;62.80;;;36.95;;
39486;SDS011;25173;50.430;18.926;2023-10-09T00:17:40;56.97;;;37.65;;
39486;SDS011;25173;50.430;18.926;2023-10-09T00:20:44;58.78;;;47.25;;
39486;SDS011;25173;50.430;18.926;2023-10-09T00:23:49;40.28;;;21.77;;
39486;SDS011;25173;50.430;18.926;2023-10-09T00:26:59;45.10;;;24.88;;
39486;SDS011;25173;50.430;18.926;2023-10-09T00:30:14;32.20;;;15.60;;
39486;SDS011;25173;50.430;18.926;2023-10-09T00:33:18;25.50;;;13.63;;
39486;SDS011;25173;50.430;18.926;2023-10-09T00:36:22;20.38;;;12.27;;
39486;SDS011;25173;50.430;18.926;2023-10-09T00:39:28;18.90;;;10.80;;
39486;SDS011;25173;50.430;18.926;2023-10-09T00:42:43;19.25;;;10.85;;
39486;SDS011;25173;50.430;18.926;2023-10-09T00:45:45;16.33;;;10.27;;
39486;SDS011;25173;50.430;18.926;2023-10-09T00:48:47;15.52;;;10.55;;
39486;SDS011;25173;50.430;18.926;2023-10-09T00:51:49;19.95;;;11.05;;
39486;SDS011;25173;50.430;18.926;2023-10-09T00:54:56;20.52;;;11.27;;
39486;SDS011;25173;50.430;18.926;2023-10-09T00:58:01;22.73;;;12.37;;
39486;SDS011;25173;50.430;18.926;2023-10-09T01:01:05;22.60;;;11.95;;
39486;SDS011;25173;50.430;18.926;2023-10-09T01:04:09;21.55;;;11.82;;
39486;SDS011;25173;50.430;18.926;2023-10-09T01:07:15;20.58;;;12.05;;
39486;SDS011;25173;50.430;18.926;2023-10-09T01:10:16;29.23;;;15.57;;
39486;SDS011;25173;50.430;18.926;2023-10-09T01:13:16;34.17;;;18.13;;
39486;SDS011;25173;50.430;18.926;2023-10-09T01:16:19;50.75;;;25.55;;
39486;SDS011;25173;50.430;18.926;2023-10-09T01:19:22;55.67;;;29.92;;
39486;SDS011;25173;50.430;18.926;2023-10-09T01:22:31;55.78;;;27.33;;
39486;SDS011;25173;50.430;18.926;2023-10-09T01:25:31;56.25;;;29.25;;
39486;SDS011;25173;50.430;18.926;2023-10-09T01:28:46;44.47;;;24.63;;
39486;SDS011;25173;50.430;18.926;2023-10-09T01:31:51;50.28;;;29.48;;
39486;SDS011;25173;50.430;18.926;2023-10-09T01:37:57;43.72;;;24.88;;
39486;SDS011;25173;50.430;18.926;2023-10-09T01:40:57;47.75;;;25.10;;
39486;SDS011;25173;50.430;18.926;2023-10-09T01:44:07;39.83;;;24.20;;
39486;SDS011;25173;50.430;18.926;2023-10-09T01:47:12;45.85;;;28.15;;
39486;SDS011;25173;50.430;18.926;2023-10-09T01:50:18;42.38;;;24.30;;
39486;SDS011;25173;50.430;18.926;2023-10-09T01:53:31;43.85;;;24.83;;
39486;SDS011;25173;50.430;18.926;2023-10-09T01:56:33;33.75;;;21.95;;
39486;SDS011;25173;50.430;18.926;2023-10-09T01:59:44;38.70;;;22.08;;
39486;SDS011;25173;50.430;18.926;2023-10-09T02:02:46;45.47;;;26.50;;
39486;SDS011;25173;50.430;18.926;2023-10-09T02:05:46;44.47;;;25.08;;
39486;SDS011;25173;50.430;18.926;2023-10-09T02:08:47;39.63;;;23.23;;
39486;SDS011;25173;50.430;18.926;2023-10-09T02:11:50;37.22;;;23.67;;
39486;SDS011;25173;50.430;18.926;2023-10-09T02:14:51;33.45;;;20.92;;
39486;SDS011;25173;50.430;18.926;2023-10-09T02:17:56;34.65;;;19.35;;
39486;SDS011;25173;50.430;18.926;2023-10-09T02:24:02;35.58;;;22.30;;
39486;SDS011;25173;50.430;18.926;2023-10-09T02:27:06;30.05;;;18.10;;
39486;SDS011;25173;50.430;18.926;2023-10-09T02:30:07;26.98;;;16.17;;
39486;SDS011;25173;50.430;18.926;2023-10-09T02:33:20;27.70;;;16.63;;
39486;SDS011;25173;50.430;18.926;2023-10-09T02:36:30;26.15;;;16.40;;
39486;SDS011;25173;50.430;18.926;2023-10-09T02:39:31;54.65;;;33.05;;
39486;SDS011;25173;50.430;18.926;2023-10-09T02:42:43;33.85;;;21.55;;
39486;SDS011;25173;50.430;18.926;2023-10-09T02:45:45;36.47;;;21.05;;
39486;SDS011;25173;50.430;18.926;2023-10-09T02:48:50;33.90;;;21.15;;
39486;SDS011;25173;50.430;18.926;2023-10-09T02:51:51;33.38;;;19.52;;
39486;SDS011;25173;50.430;18.926;2023-10-09T02:54:56;25.33;;;15.35;;
39486;SDS011;25173;50.430;18.926;2023-10-09T02:57:59;30.67;;;16.60;;
39486;SDS011;25173;50.430;18.926;2023-10-09T03:01:11;30.38;;;17.50;;
39486;SDS011;25173;50.430;18.926;2023-10-09T03:04:13;27.42;;;14.95;;
39486;SDS011;25173;50.430;18.926;2023-10-09T03:07:15;28.40;;;15.35;;
39486;SDS011;25173;50.430;18.926;2023-10-09T03:10:15;26.60;;;14.27;;
39486;SDS011;25173;50.430;18.926;2023-10-09T03:13:16;29.40;;;15.50;;
39486;SDS011;25173;50.430;18.926;2023-10-09T03:16:19;23.77;;;14.35;;
39486;SDS011;25173;50.430;18.926;2023-10-09T03:19:20;23.00;;;14.10;;
39486;SDS011;25173;50.430;18.926;2023-10-09T03:22:20;23.83;;;13.88;;
39486;SDS011;25173;50.430;18.926;2023-10-09T03:25:21;25.77;;;13.77;;
39486;SDS011;25173;50.430;18.926;2023-10-09T03:28:25;22.75;;;13.18;;
39486;SDS011;25173;50.430;18.926;2023-10-09T03:31:27;20.67;;;12.32;;
39486;SDS011;25173;50.430;18.926;2023-10-09T03:34:31;29.55;;;18.20;;
39486;SDS011;25173;50.430;18.926;2023-10-09T03:37:32;31.88;;;21.42;;
39486;SDS011;25173;50.430;18.926;2023-10-09T03:40:36;23.85;;;14.20;;
39486;SDS011;25173;50.430;18.926;2023-10-09T03:43:39;23.85;;;12.85;;
39486;SDS011;25173;50.430;18.926;2023-10-09T03:46:41;27.13;;;14.38;;
39486;SDS011;25173;50.430;18.926;2023-10-09T03:49:44;28.80;;;16.17;;
39486;SDS011;25173;50.430;18.926;2023-10-09T03:52:45;26.65;;;14.43;;
39486;SDS011;25173;50.430;18.926;2023-10-09T03:55:46;27.33;;;14.82;;
39486;SDS011;25173;50.430;18.926;2023-10-09T03:58:47;32.25;;;14.35;;
39486;SDS011;25173;50.430;18.926;2023-10-09T04:01:53;27.73;;;14.85;;
39486;SDS011;25173;50.430;18.926;2023-10-09T04:04:54;38.35;;;16.33;;
39486;SDS011;25173;50.430;18.926;2023-10-09T04:07:55;38.63;;;13.95;;
39486;SDS011;25173;50.430;18.926;2023-10-09T04:10:58;24.08;;;12.90;;
39486;SDS011;25173;50.430;18.926;2023-10-09T04:14:03;23.17;;;11.98;;
39486;SDS011;25173;50.430;18.926;2023-10-09T04:17:10;23.55;;;11.90;;
39486;SDS011;25173;50.430;18.926;2023-10-09T04:20:23;21.08;;;11.23;;
39486;SDS011;25173;50.430;18.926;2023-10-09T04:23:23;20.65;;;10.32;;
39486;SDS011;25173;50.430;18.926;2023-10-09T04:26:36;22.73;;;15.18;;
39486;SDS011;25173;50.430;18.926;2023-10-09T04:29:37;35.00;;;18.23;;
39486;SDS011;25173;50.430;18.926;2023-10-09T04:32:39;38.40;;;24.45;;
39486;SDS011;25173;50.430;18.926;2023-10-09T04:35:40;33.63;;;19.50;;
39486;SDS011;25173;50.430;18.926;2023-10-09T04:38:46;27.00;;;14.18;;
39486;SDS011;25173;50.430;18.926;2023-10-09T04:41:59;26.10;;;14.23;;
39486;SDS011;25173;50.430;18.926;2023-10-09T04:45:19;25.45;;;14.57;;
39486;SDS011;25173;50.430;18.926;2023-10-09T04:48:39;29.60;;;17.77;;
39486;SDS011;25173;50.430;18.926;2023-10-09T04:51:45;29.48;;;18.83;;
39486;SDS011;25173;50.430;18.926;2023-10-09T04:55:03;26.60;;;15.98;;
39486;SDS011;25173;50.430;18.926;2023-10-09T04:58:09;24.60;;;15.00;;
39486;SDS011;25173;50.430;18.926;2023-10-09T05:01:13;38.20;;;22.98;;
39486;SDS011;25173;50.430;18.926;2023-10-09T05:04:15;38.88;;;21.33;;
39486;SDS011;25173;50.430;18.926;2023-10-09T05:07:35;35.70;;;21.15;;
39486;SDS011;25173;50.430;18.926;2023-10-09T05:14:00;33.55;;;17.92;;
39486;SDS011;25173;50.430;18.926;2023-10-09T05:17:13;22.58;;;13.95;;
39486;SDS011;25173;50.430;18.926;2023-10-09T05:20:17;22.55;;;12.18;;
39486;SDS011;25173;50.430;18.926;2023-10-09T05:23:23;19.63;;;11.23;;
39486;SDS011;25173;50.430;18.926;2023-10-09T05:26:25;18.42;;;10.13;;
39486;SDS011;25173;50.430;18.926;2023-10-09T05:29:49;22.45;;;10.38;;
39486;SDS011;25173;50.430;18.926;2023-10-09T05:32:59;24.05;;;10.45;;
39486;SDS011;25173;50.430;18.926;2023-10-09T05:36:19;17.70;;;10.48;;
39486;SDS011;25173;50.430;18.926;2023-10-09T05:39:20;18.50;;;11.13;;
39486;SDS011;25173;50.430;18.926;2023-10-09T05:42:39;19.48;;;11.10;;
39486;SDS011;25173;50.430;18.926;2023-10-09T05:45:43;16.05;;;9.50;;
39486;SDS011;25173;50.430;18.926;2023-10-09T05:49:02;17.92;;;9.60;;
39486;SDS011;25173;50.430;18.926;2023-10-09T05:52:10;19.10;;;9.23;;
39486;SDS011;25173;50.430;18.926;2023-10-09T05:55:33;22.10;;;9.30;;
39486;SDS011;25173;50.430;18.926;2023-10-09T05:59:09;17.63;;;7.68;;
39486;SDS011;25173;50.430;18.926;2023-10-09T06:02:32;13.25;;;6.55;;
39486;SDS011;25173;50.430;18.926;2023-10-09T06:05:52;9.73;;;5.28;;
39486;SDS011;25173;50.430;18.926;2023-10-09T06:08:53;11.63;;;6.00;;
39486;SDS011;25173;50.430;18.926;2023-10-09T06:12:12;8.52;;;5.32;;
39486;SDS011;25173;50.430;18.926;2023-10-09T06:15:37;8.75;;;5.28;;
39486;SDS011;25173;50.430;18.926;2023-10-09T06:18:50;8.38;;;4.75;;
39486;SDS011;25173;50.430;18.926;2023-10-09T06:21:55;9.07;;;5.15;;
39486;SDS011;25173;50.430;18.926;2023-10-09T06:25:15;8.73;;;5.78;;
39486;SDS011;25173;50.430;18.926;2023-10-09T06:28:18;9.20;;;5.47;;
39486;SDS011;25173;50.430;18.926;2023-10-09T06:31:19;10.70;;;5.75;;
39486;SDS011;25173;50.430;18.926;2023-10-09T06:34:29;13.23;;;5.88;;
39486;SDS011;25173;50.430;18.926;2023-10-09T06:37:33;10.57;;;5.38;;
39486;SDS011;25173;50.430;18.926;2023-10-09T06:40:34;9.60;;;5.72;;
39486;SDS011;25173;50.430;18.926;2023-10-09T06:43:55;10.50;;;6.18;;
39486;SDS011;25173;50.430;18.926;2023-10-09T06:46:55;11.02;;;6.50;;
39486;SDS011;25173;50.430;18.926;2023-10-09T06:49:58;10.25;;;6.50;;
39486;SDS011;25173;50.430;18.926;2023-10-09T06:53:24;10.40;;;6.25;;
39486;SDS011;25173;50.430;18.926;2023-10-09T06:56:43;17.35;;;8.88;;
39486;SDS011;25173;50.430;18.926;2023-10-09T06:59:53;14.50;;;8.98;;
39486;SDS011;25173;50.430;18.926;2023-10-09T07:03:12;15.23;;;7.38;;
39486;SDS011;25173;50.430;18.926;2023-10-09T07:06:12;12.88;;;7.53;;
39486;SDS011;25173;50.430;18.926;2023-10-09T07:09:25;14.18;;;8.90;;
39486;SDS011;25173;50.430;18.926;2023-10-09T07:12:42;16.02;;;10.90;;
39486;SDS011;25173;50.430;18.926;2023-10-09T07:15:44;14.60;;;7.60;;
39486;SDS011;25173;50.430;18.926;2023-10-09T07:19:06;17.92;;;11.55;;
39486;SDS011;25173;50.430;18.926;2023-10-09T07:22:32;22.52;;;12.02;;
39486;SDS011;25173;50.430;18.926;2023-10-09T07:25:42;21.48;;;11.40;;
39486;SDS011;25173;50.430;18.926;2023-10-09T07:28:55;22.65;;;12.25;;
39486;SDS011;25173;50.430;18.926;2023-10-09T07:32:01;24.83;;;16.88;;
39486;SDS011;25173;50.430;18.926;2023-10-09T07:35:12;17.23;;;10.25;;
39486;SDS011;25173;50.430;18.926;2023-10-09T07:38:33;15.52;;;8.45;;
39486;SDS011;25173;50.430;18.926;2023-10-09T07:41:36;15.05;;;8.85;;
39486;SDS011;25173;50.430;18.926;2023-10-09T07:44:39;17.30;;;9.82;;
39486;SDS011;25173;50.430;18.926;2023-10-09T07:47:42;23.73;;;12.70;;
39486;SDS011;25173;50.430;18.926;2023-10-09T07:51:11;23.13;;;12.75;;
39486;SDS011;25173;50.430;18.926;2023-10-09T07:54:12;26.92;;;15.65;;
39486;SDS011;25173;50.430;18.926;2023-10-09T07:57:16;24.42;;;15.68;;
39486;SDS011;25173;50.430;18.926;2023-10-09T08:00:17;39.10;;;22.85;;
39486;SDS011;25173;50.430;18.926;2023-10-09T08:03:36;51.47;;;27.35;;
39486;SDS011;25173;50.430;18.926;2023-10-09T08:06:38;43.33;;;24.80;;
39486;SDS011;25173;50.430;18.926;2023-10-09T08:09:38;44.63;;;24.48;;
39486;SDS011;25173;50.430;18.926;2023-10-09T08:13:11;26.58;;;14.40;;
39486;SDS011;25173;50.430;18.926;2023-10-09T08:16:31;22.95;;;13.18;;
39486;SDS011;25173;50.430;18.926;2023-10-09T08:19:38;27.55;;;14.63;;
39486;SDS011;25173;50.430;18.926;2023-10-09T08:22:54;19.60;;;12.05;;
39486;SDS011;25173;50.430;18.926;2023-10-09T08:26:02;22.75;;;14.02;;
39486;SDS011;25173;50.430;18.926;2023-10-09T08:29:15;13.48;;;9.45;;
39486;SDS011;25173;50.430;18.926;2023-10-09T08:32:20;19.52;;;13.13;;
39486;SDS011;25173;50.430;18.926;2023-10-09T08:35:38;11.60;;;8.40;;
39486;SDS011;25173;50.430;18.926;2023-10-09T08:39:02;10.20;;;6.47;;
39486;SDS011;25173;50.430;18.926;2023-10-09T08:42:17;9.57;;;6.70;;
39486;SDS011;25173;50.430;18.926;2023-10-09T08:45:21;13.90;;;6.53;;
39486;SDS011;25173;50.430;18.926;2023-10-09T08:48:24;12.23;;;7.43;;
39486;SDS011;25173;50.430;18.926;2023-10-09T08:51:28;10.57;;;6.50;;
39486;SDS011;25173;50.430;18.926;2023-10-09T08:54:29;15.90;;;8.55;;
39486;SDS011;25173;50.430;18.926;2023-10-09T08:57:33;16.85;;;8.88;;
39486;SDS011;25173;50.430;18.926;2023-10-09T09:00:34;10.63;;;7.38;;
39486;SDS011;25173;50.430;18.926;2023-10-09T09:03:38;6.88;;;5.07;;
39486;SDS011;25173;50.430;18.926;2023-10-09T09:06:39;6.13;;;3.45;;
39486;SDS011;25173;50.430;18.926;2023-10-09T09:09:47;10.25;;;4.53;;
39486;SDS011;25173;50.430;18.926;2023-10-09T09:13:02;8.32;;;4.60;;
39486;SDS011;25173;50.430;18.926;2023-10-09T09:16:03;6.82;;;4.70;;
39486;SDS011;25173;50.430;18.926;2023-10-09T09:19:05;7.65;;;4.45;;
39486;SDS011;25173;50.430;18.926;2023-10-09T09:22:09;6.78;;;4.20;;
39486;SDS011;25173;50.430;18.926;2023-10-09T09:25:13;7.57;;;4.35;;
39486;SDS011;25173;50.430;18.926;2023-10-09T09:28:14;6.20;;;3.97;;
39486;SDS011;25173;50.430;18.926;2023-10-09T09:31:23;5.97;;;4.05;;
39486;SDS011;25173;50.430;18.926;2023-10-09T09:34:50;7.40;;;4.32;;
39486;SDS011;25173;50.430;18.926;2023-10-09T09:37:54;5.50;;;2.95;;
39486;SDS011;25173;50.430;18.926;2023-10-09T09:41:03;5.22;;;3.20;;
39486;SDS011;25173;50.430;18.926;2023-10-09T09:44:07;5.63;;;3.05;;
39486;SDS011;25173;50.430;18.926;2023-10-09T09:47:08;7.18;;;3.58;;
39486;SDS011;25173;50.430;18.926;2023-10-09T09:50:12;4.90;;;3.33;;
39486;SDS011;25173;50.430;18.926;2023-10-09T09:53:23;5.55;;;3.72;;
39486;SDS011;25173;50.430;18.926;2023-10-09T09:56:28;5.72;;;3.35;;
39486;SDS011;25173;50.430;18.926;2023-10-09T09:59:29;5.77;;;3.67;;
39486;SDS011;25173;50.430;18.926;2023-10-09T10:02:34;7.03;;;3.60;;
39486;SDS011;25173;50.430;18.926;2023-10-09T10:05:37;7.68;;;4.25;;
39486;SDS011;25173;50.430;18.926;2023-10-09T10:08:43;6.25;;;4.93;;
39486;SDS011;25173;50.430;18.926;2023-10-09T10:11:44;7.43;;;5.00;;
39486;SDS011;25173;50.430;18.926;2023-10-09T10:14:52;9.43;;;4.85;;
39486;SDS011;25173;50.430;18.926;2023-10-09T10:27:29;10.90;;;5.45;;
39486;SDS011;25173;50.430;18.926;2023-10-09T10:30:55;10.57;;;6.78;;
39486;SDS011;25173;50.430;18.926;2023-10-09T10:37:00;6.93;;;4.03;;
39486;SDS011;25173;50.430;18.926;2023-10-09T10:40:01;8.48;;;4.43;;
39486;SDS011;25173;50.430;18.926;2023-10-09T10:43:04;7.78;;;4.15;;
39486;SDS011;25173;50.430;18.926;2023-10-09T10:46:43;10.88;;;7.65;;
39486;SDS011;25173;50.430;18.926;2023-10-09T10:49:44;5.30;;;3.40;;
39486;SDS011;25173;50.430;18.926;2023-10-09T10:52:49;6.93;;;4.32;;
39486;SDS011;25173;50.430;18.926;2023-10-09T10:55:58;5.93;;;3.47;;
39486;SDS011;25173;50.430;18.926;2023-10-09T10:59:31;5.20;;;3.85;;
39486;SDS011;25173;50.430;18.926;2023-10-09T11:02:41;6.53;;;3.40;;
39486;SDS011;25173;50.430;18.926;2023-10-09T11:05:43;4.32;;;3.38;;
39486;SDS011;25173;50.430;18.926;2023-10-09T11:08:50;4.22;;;2.75;;
39486;SDS011;25173;50.430;18.926;2023-10-09T11:12:03;7.32;;;4.75;;
39486;SDS011;25173;50.430;18.926;2023-10-09T11:15:13;5.00;;;2.95;;
39486;SDS011;25173;50.430;18.926;2023-10-09T11:18:23;4.68;;;2.60;;
39486;SDS011;25173;50.430;18.926;2023-10-09T11:21:27;4.78;;;2.47;;
39486;SDS011;25173;50.430;18.926;2023-10-09T11:24:31;3.72;;;2.65;;
39486;SDS011;25173;50.430;18.926;2023-10-09T11:27:35;4.80;;;3.03;;
39486;SDS011;25173;50.430;18.926;2023-10-09T11:30:40;8.10;;;5.85;;
39486;SDS011;25173;50.430;18.926;2023-10-09T11:36:45;7.35;;;4.05;;
39486;SDS011;25173;50.430;18.926;2023-10-09T11:39:49;4.65;;;3.33;;
39486;SDS011;25173;50.430;18.926;2023-10-09T11:42:52;8.73;;;4.40;;
39486;SDS011;25173;50.430;18.926;2023-10-09T11:46:07;9.90;;;6.13;;
39486;SDS011;25173;50.430;18.926;2023-10-09T11:49:23;22.90;;;11.90;;
39486;SDS011;25173;50.430;18.926;2023-10-09T11:52:32;8.68;;;5.82;;
39486;SDS011;25173;50.430;18.926;2023-10-09T11:55:38;13.15;;;7.63;;
39486;SDS011;25173;50.430;18.926;2023-10-09T11:58:42;15.63;;;11.13;;
39486;SDS011;25173;50.430;18.926;2023-10-09T12:01:45;20.00;;;10.88;;
39486;SDS011;25173;50.430;18.926;2023-10-09T12:04:53;41.13;;;27.40;;
39486;SDS011;25173;50.430;18.926;2023-10-09T12:07:56;12.43;;;7.60;;
39486;SDS011;25173;50.430;18.926;2023-10-09T12:10:57;8.95;;;4.93;;
39486;SDS011;25173;50.430;18.926;2023-10-09T12:13:59;11.88;;;6.60;;
39486;SDS011;25173;50.430;18.926;2023-10-09T12:17:01;13.55;;;8.48;;
39486;SDS011;25173;50.430;18.926;2023-10-09T12:20:08;15.43;;;10.05;;
39486;SDS011;25173;50.430;18.926;2023-10-09T12:23:14;10.60;;;8.25;;
39486;SDS011;25173;50.430;18.926;2023-10-09T12:26:15;9.45;;;5.68;;
39486;SDS011;25173;50.430;18.926;2023-10-09T12:29:16;15.32;;;7.95;;
39486;SDS011;25173;50.430;18.926;2023-10-09T12:32:20;11.18;;;6.10;;
39486;SDS011;25173;50.430;18.926;2023-10-09T12:35:21;13.10;;;7.82;;
39486;SDS011;25173;50.430;18.926;2023-10-09T12:38:21;9.50;;;6.38;;
39486;SDS011;25173;50.430;18.926;2023-10-09T12:41:23;7.50;;;5.57;;
39486;SDS011;25173;50.430;18.926;2023-10-09T12:44:27;6.15;;;4.88;;
39486;SDS011;25173;50.430;18.926;2023-10-09T12:47:28;9.65;;;6.85;;
39486;SDS011;25173;50.430;18.926;2023-10-09T12:50:29;10.98;;;6.65;;
39486;SDS011;25173;50.430;18.926;2023-10-09T12:53:34;11.90;;;6.40;;
39486;SDS011;25173;50.430;18.926;2023-10-09T12:56:34;11.57;;;7.60;;
39486;SDS011;25173;50.430;18.926;2023-10-09T12:59:37;10.05;;;7.18;;
39486;SDS011;25173;50.430;18.926;2023-10-09T13:02:38;12.45;;;6.88;;
39486;SDS011;25173;50.430;18.926;2023-10-09T13:05:44;9.95;;;7.05;;
39486;SDS011;25173;50.430;18.926;2023-10-09T13:08:58;17.17;;;10.02;;
39486;SDS011;25173;50.430;18.926;2023-10-09T13:12:00;31.20;;;13.77;;
39486;SDS011;25173;50.430;18.926;2023-10-09T13:15:00;18.45;;;11.90;;
39486;SDS011;25173;50.430;18.926;2023-10-09T13:18:01;18.98;;;12.13;;
39486;SDS011;25173;50.430;18.926;2023-10-09T13:21:02;15.02;;;10.18;;
39486;SDS011;25173;50.430;18.926;2023-10-09T13:24:04;21.17;;;13.05;;
39486;SDS011;25173;50.430;18.926;2023-10-09T13:27:04;17.52;;;10.50;;
39486;SDS011;25173;50.430;18.926;2023-10-09T13:30:10;13.32;;;8.93;;
39486;SDS011;25173;50.430;18.926;2023-10-09T13:33:22;19.92;;;11.30;;
39486;SDS011;25173;50.430;18.926;2023-10-09T13:36:23;20.15;;;11.93;;
39486;SDS011;25173;50.430;18.926;2023-10-09T13:39:33;16.70;;;9.73;;
39486;SDS011;25173;50.430;18.926;2023-10-09T13:42:39;15.52;;;9.77;;
39486;SDS011;25173;50.430;18.926;2023-10-09T13:45:40;21.77;;;11.32;;
39486;SDS011;25173;50.430;18.926;2023-10-09T13:48:40;11.30;;;8.40;;
39486;SDS011;25173;50.430;18.926;2023-10-09T13:51:43;17.17;;;10.27;;
39486;SDS011;25173;50.430;18.926;2023-10-09T13:54:45;10.68;;;8.07;;
39486;SDS011;25173;50.430;18.926;2023-10-09T13:57:49;8.73;;;7.40;;
39486;SDS011;25173;50.430;18.926;2023-10-09T14:00:50;8.50;;;7.03;;
39486;SDS011;25173;50.430;18.926;2023-10-09T14:03:57;11.75;;;7.75;;
39486;SDS011;25173;50.430;18.926;2023-10-09T14:06:58;11.63;;;9.20;;
39486;SDS011;25173;50.430;18.926;2023-10-09T14:09:59;19.13;;;13.60;;
39486;SDS011;25173;50.430;18.926;2023-10-09T14:13:07;22.83;;;14.60;;
39486;SDS011;25173;50.430;18.926;2023-10-09T14:16:12;14.80;;;10.20;;
39486;SDS011;25173;50.430;18.926;2023-10-09T14:19:24;12.30;;;9.13;;
39486;SDS011;25173;50.430;18.926;2023-10-09T14:22:24;12.75;;;8.75;;
39486;SDS011;25173;50.430;18.926;2023-10-09T14:25:25;18.50;;;11.05;;
39486;SDS011;25173;50.430;18.926;2023-10-09T14:28:30;17.23;;;10.60;;
39486;SDS011;25173;50.430;18.926;2023-10-09T14:31:30;13.90;;;11.73;;
39486;SDS011;25173;50.430;18.926;2023-10-09T14:34:31;15.60;;;10.43;;
39486;SDS011;25173;50.430;18.926;2023-10-09T14:37:36;14.63;;;10.52;;
39486;SDS011;25173;50.430;18.926;2023-10-09T14:40:42;12.52;;;9.20;;
39486;SDS011;25173;50.430;18.926;2023-10-09T14:43:46;13.60;;;10.30;;
39486;SDS011;25173;50.430;18.926;2023-10-09T14:46:48;13.27;;;9.20;;
39486;SDS011;25173;50.430;18.926;2023-10-09T14:49:49;18.77;;;12.27;;
39486;SDS011;25173;50.430;18.926;2023-10-09T14:52:50;44.38;;;28.45;;
39486;SDS011;25173;50.430;18.926;2023-10-09T14:55:54;38.63;;;28.50;;
39486;SDS011;25173;50.430;18.926;2023-10-09T14:58:56;46.88;;;33.67;;
39486;SDS011;25173;50.430;18.926;2023-10-09T15:01:58;54.38;;;36.78;;
39486;SDS011;25173;50.430;18.926;2023-10-09T15:04:59;46.65;;;33.22;;
39486;SDS011;25173;50.430;18.926;2023-10-09T15:08:00;40.35;;;27.02;;
39486;SDS011;25173;50.430;18.926;2023-10-09T15:11:01;37.22;;;23.73;;
39486;SDS011;25173;50.430;18.926;2023-10-09T15:14:02;17.10;;;13.25;;
39486;SDS011;25173;50.430;18.926;2023-10-09T15:17:05;21.20;;;14.88;;
39486;SDS011;25173;50.430;18.926;2023-10-09T15:20:07;19.85;;;14.13;;
39486;SDS011;25173;50.430;18.926;2023-10-09T15:23:13;15.18;;;13.45;;
39486;SDS011;25173;50.430;18.926;2023-10-09T15:26:14;20.65;;;13.73;;
39486;SDS011;25173;50.430;18.926;2023-10-09T15:29:20;15.38;;;12.88;;
39486;SDS011;25173;50.430;18.926;2023-10-09T15:32:28;22.13;;;14.25;;
39486;SDS011;25173;50.430;18.926;2023-10-09T15:35:29;17.00;;;13.18;;
39486;SDS011;25173;50.430;18.926;2023-10-09T15:38:29;19.65;;;13.05;;
39486;SDS011;25173;50.430;18.926;2023-10-09T15:41:30;17.88;;;13.80;;
39486;SDS011;25173;50.430;18.926;2023-10-09T15:44:33;20.30;;;14.73;;
39486;SDS011;25173;50.430;18.926;2023-10-09T15:47:36;18.35;;;12.93;;
39486;SDS011;25173;50.430;18.926;2023-10-09T15:50:37;25.08;;;18.42;;
39486;SDS011;25173;50.430;18.926;2023-10-09T15:53:41;30.00;;;21.92;;
39486;SDS011;25173;50.430;18.926;2023-10-09T15:56:42;34.70;;;21.52;;
39486;SDS011;25173;50.430;18.926;2023-10-09T15:59:43;39.10;;;23.98;;
39486;SDS011;25173;50.430;18.926;2023-10-09T16:02:48;44.42;;;26.40;;
39486;SDS011;25173;50.430;18.926;2023-10-09T16:05:53;51.55;;;34.28;;
39486;SDS011;25173;50.430;18.926;2023-10-09T16:08:53;82.88;;;48.15;;
39486;SDS011;25173;50.430;18.926;2023-10-09T16:11:54;70.20;;;46.33;;
39486;SDS011;25173;50.430;18.926;2023-10-09T16:14:55;55.03;;;38.65;;
39486;SDS011;25173;50.430;18.926;2023-10-09T16:17:56;93.70;;;43.25;;
39486;SDS011;25173;50.430;18.926;2023-10-09T16:20:59;102.80;;;46.30;;
39486;SDS011;25173;50.430;18.926;2023-10-09T16:24:04;138.30;;;55.08;;
39486;SDS011;25173;50.430;18.926;2023-10-09T16:30:10;26.30;;;20.13;;
39486;SDS011;25173;50.430;18.926;2023-10-09T16:33:13;22.13;;;17.33;;
39486;SDS011;25173;50.430;18.926;2023-10-09T16:36:16;25.73;;;20.17;;
39486;SDS011;25173;50.430;18.926;2023-10-09T16:39:16;23.95;;;20.42;;
39486;SDS011;25173;50.430;18.926;2023-10-09T16:42:22;23.52;;;17.70;;
39486;SDS011;25173;50.430;18.926;2023-10-09T16:45:24;38.38;;;26.70;;
39486;SDS011;25173;50.430;18.926;2023-10-09T16:48:26;86.65;;;67.13;;
39486;SDS011;25173;50.430;18.926;2023-10-09T16:51:27;40.88;;;30.15;;
39486;SDS011;25173;50.430;18.926;2023-10-09T16:54:28;25.17;;;20.23;;
39486;SDS011;25173;50.430;18.926;2023-10-09T16:57:29;25.30;;;18.33;;
39486;SDS011;25173;50.430;18.926;2023-10-09T17:00:29;24.27;;;17.05;;
39486;SDS011;25173;50.430;18.926;2023-10-09T17:03:34;24.33;;;17.08;;
39486;SDS011;25173;50.430;18.926;2023-10-09T17:06:38;28.75;;;16.90;;
39486;SDS011;25173;50.430;18.926;2023-10-09T17:09:42;25.75;;;18.58;;
39486;SDS011;25173;50.430;18.926;2023-10-09T17:12:42;24.17;;;17.67;;
39486;SDS011;25173;50.430;18.926;2023-10-09T17:15:47;31.30;;;21.92;;
39486;SDS011;25173;50.430;18.926;2023-10-09T17:18:53;29.70;;;22.25;;
39486;SDS011;25173;50.430;18.926;2023-10-09T17:21:53;34.30;;;24.13;;
39486;SDS011;25173;50.430;18.926;2023-10-09T17:24:56;30.20;;;21.67;;
39486;SDS011;25173;50.430;18.926;2023-10-09T17:27:57;24.10;;;19.23;;
39486;SDS011;25173;50.430;18.926;2023-10-09T17:31:00;25.95;;;18.60;;
39486;SDS011;25173;50.430;18.926;2023-10-09T17:34:02;29.08;;;18.05;;
39486;SDS011;25173;50.430;18.926;2023-10-09T17:37:03;25.17;;;19.10;;
39486;SDS011;25173;50.430;18.926;2023-10-09T17:40:05;23.77;;;17.48;;
39486;SDS011;25173;50.430;18.926;2023-10-09T17:43:09;26.80;;;18.63;;
39486;SDS011;25173;50.430;18.926;2023-10-09T17:46:09;23.98;;;17.67;;
39486;SDS011;25173;50.430;18.926;2023-10-09T17:49:12;19.65;;;16.13;;
39486;SDS011;25173;50.430;18.926;2023-10-09T17:52:12;20.27;;;15.55;;
39486;SDS011;25173;50.430;18.926;2023-10-09T17:55:13;22.75;;;16.48;;
39486;SDS011;25173;50.430;18.926;2023-10-09T17:58:13;20.98;;;16.33;;
39486;SDS011;25173;50.430;18.926;2023-10-09T18:01:14;22.02;;;16.40;;
39486;SDS011;25173;50.430;18.926;2023-10-09T18:04:15;22.23;;;15.95;;
39486;SDS011;25173;50.430;18.926;2023-10-09T18:07:15;21.05;;;15.02;;
39486;SDS011;25173;50.430;18.926;2023-10-09T18:10:19;24.05;;;16.67;;
39486;SDS011;25173;50.430;18.926;2023-10-09T18:13:21;21.65;;;14.90;;
39486;SDS011;25173;50.430;18.926;2023-10-09T18:16:25;18.02;;;14.10;;
39486;SDS011;25173;50.430;18.926;2023-10-09T18:19:26;20.10;;;15.90;;
39486;SDS011;25173;50.430;18.926;2023-10-09T18:22:29;21.38;;;15.07;;
39486;SDS011;25173;50.430;18.926;2023-10-09T18:25:30;18.30;;;14.52;;
39486;SDS011;25173;50.430;18.926;2023-10-09T18:28:30;19.42;;;15.63;;